Aérodrome :
LOGIN :

S'inscrire | Disclaimer

   EN    FR    IT 

 










Légende :    VFR   VFR Marginal   IFR   IFR Intensif   IFR Très Intensif
Visi : 
Plafond : 
>= 8 km
>= 3000ft
5 à 8 km
1000 à 3000 ft
1500m à 5 km
500 à 1000 ft
800 à 1500m
200 à 500 ft
< 800m
< 200 ft
Symboles :   Orages  Brouillard  Fortes neiges  Fortes précipitations  Vent > 20 kt
SIGMETs :   Divers  Orages  Givrage  Turbulence  Onde Orograph.  Cendres Volcan.







- Altitude de l'aérodrome : 17 ft
- Code IATA : GRQ


EHGG - Groningen Eelde

DERNIER METAR :
  • 292055Z AUTO 07006KT 9999 NCD 04/02 Q1018 NOSIG

METARs EXPIRÉS :
  • 292025Z AUTO 05006KT 9999 NCD 04/02 Q1018 NOSIG
  • 291955Z AUTO 05005KT 9999 NCD 05/02 Q1018 NOSIG
  • 291925Z AUTO 04006KT 9999 NCD 06/03 Q1018 NOSIG
  • 291855Z AUTO 05006KT 9999 NSC 06/02 Q1018 NOSIG
  • 291825Z AUTO 05007KT 9999 NCD 08/01 Q1018 NOSIG

TAF TAF EHGG
Valide du 29 à 18h jusqu'au 01 à 00h UTC


291714Z 2918/3024 05007KT CAVOK
BECMG 3007/3010 12015G28KT
Pas de NOTAMs connus pour ce terrain.



MET'MAP, la Météo Aéronautique d'un coup d'oeil ! - Copyright ORBIFLY Décembre 2007 - Disclaimer

ORBIFLY MET'MAP TEAM :

Programmation & Développement : Alexandra Zaïnal
Conception & Développement : Baudouin d'Aumeries
Co-Programmation & Développement : Marc-Olivier Méhu
Soutien technique & logistique : Manuel Goepfert

Contact : metmap@orbifly.com




SOURCES & CREDITS :

   NOAA